sensor_id;sensor_type;location;lat;lon;timestamp;P1;durP1;ratioP1;P2;durP2;ratioP2
80539;SDS011;69869;48.036;15.780;2024-02-16T00:01:00;4.13;;;3.72;;
80539;SDS011;69869;48.036;15.780;2024-02-16T00:03:26;4.40;;;4.00;;
80539;SDS011;69869;48.036;15.780;2024-02-16T00:05:52;4.15;;;3.78;;
80539;SDS011;69869;48.036;15.780;2024-02-16T00:08:18;4.80;;;4.00;;
80539;SDS011;69869;48.036;15.780;2024-02-16T00:10:44;4.20;;;3.80;;
80539;SDS011;69869;48.036;15.780;2024-02-16T00:13:09;4.43;;;4.03;;
80539;SDS011;69869;48.036;15.780;2024-02-16T00:15:35;4.20;;;3.80;;
80539;SDS011;69869;48.036;15.780;2024-02-16T00:18:01;4.45;;;4.00;;
80539;SDS011;69869;48.036;15.780;2024-02-16T00:20:27;4.38;;;3.80;;
80539;SDS011;69869;48.036;15.780;2024-02-16T00:22:53;4.18;;;3.80;;
80539;SDS011;69869;48.036;15.780;2024-02-16T00:25:20;4.38;;;3.97;;
80539;SDS011;69869;48.036;15.780;2024-02-16T00:27:45;4.40;;;4.00;;
80539;SDS011;69869;48.036;15.780;2024-02-16T00:30:11;4.13;;;3.72;;
80539;SDS011;69869;48.036;15.780;2024-02-16T00:32:37;4.35;;;3.67;;
80539;SDS011;69869;48.036;15.780;2024-02-16T00:35:03;4.55;;;4.15;;
80539;SDS011;69869;48.036;15.780;2024-02-16T00:37:28;4.22;;;3.83;;
80539;SDS011;69869;48.036;15.780;2024-02-16T00:39:54;4.60;;;4.18;;
80539;SDS011;69869;48.036;15.780;2024-02-16T00:42:21;5.00;;;4.22;;
80539;SDS011;69869;48.036;15.780;2024-02-16T00:44:51;3.92;;;3.63;;
80539;SDS011;69869;48.036;15.780;2024-02-16T00:47:17;4.68;;;3.90;;
80539;SDS011;69869;48.036;15.780;2024-02-16T00:49:43;4.22;;;3.80;;
80539;SDS011;69869;48.036;15.780;2024-02-16T00:52:08;4.80;;;4.30;;
80539;SDS011;69869;48.036;15.780;2024-02-16T00:54:35;4.22;;;3.83;;
80539;SDS011;69869;48.036;15.780;2024-02-16T00:57:01;4.38;;;3.95;;
80539;SDS011;69869;48.036;15.780;2024-02-16T00:59:30;4.55;;;4.13;;
80539;SDS011;69869;48.036;15.780;2024-02-16T01:01:56;4.25;;;3.80;;
80539;SDS011;69869;48.036;15.780;2024-02-16T01:04:21;4.03;;;3.63;;
80539;SDS011;69869;48.036;15.780;2024-02-16T01:06:48;4.88;;;3.83;;
80539;SDS011;69869;48.036;15.780;2024-02-16T01:09:13;4.13;;;3.72;;
80539;SDS011;69869;48.036;15.780;2024-02-16T01:11:41;4.00;;;3.70;;
80539;SDS011;69869;48.036;15.780;2024-02-16T01:14:06;3.97;;;3.58;;
80539;SDS011;69869;48.036;15.780;2024-02-16T01:16:32;4.07;;;3.70;;
80539;SDS011;69869;48.036;15.780;2024-02-16T01:18:58;4.47;;;4.07;;
80539;SDS011;69869;48.036;15.780;2024-02-16T01:21:24;4.60;;;3.97;;
80539;SDS011;69869;48.036;15.780;2024-02-16T01:23:49;4.03;;;3.72;;
80539;SDS011;69869;48.036;15.780;2024-02-16T01:26:15;4.07;;;3.65;;
80539;SDS011;69869;48.036;15.780;2024-02-16T01:28:40;4.35;;;3.95;;
80539;SDS011;69869;48.036;15.780;2024-02-16T01:31:06;4.60;;;4.20;;
80539;SDS011;69869;48.036;15.780;2024-02-16T01:33:35;4.13;;;3.75;;
80539;SDS011;69869;48.036;15.780;2024-02-16T01:36:01;4.15;;;3.75;;
80539;SDS011;69869;48.036;15.780;2024-02-16T01:38:27;4.30;;;3.90;;
80539;SDS011;69869;48.036;15.780;2024-02-16T01:40:53;4.90;;;4.10;;
80539;SDS011;69869;48.036;15.780;2024-02-16T01:43:22;3.95;;;3.65;;
80539;SDS011;69869;48.036;15.780;2024-02-16T01:45:47;4.43;;;4.03;;
80539;SDS011;69869;48.036;15.780;2024-02-16T01:48:16;4.30;;;3.85;;
80539;SDS011;69869;48.036;15.780;2024-02-16T01:50:43;4.10;;;3.70;;
80539;SDS011;69869;48.036;15.780;2024-02-16T01:53:11;4.13;;;3.70;;
80539;SDS011;69869;48.036;15.780;2024-02-16T01:55:38;4.25;;;3.85;;
80539;SDS011;69869;48.036;15.780;2024-02-16T01:58:03;3.78;;;3.45;;
80539;SDS011;69869;48.036;15.780;2024-02-16T02:00:29;4.05;;;3.72;;
80539;SDS011;69869;48.036;15.780;2024-02-16T02:02:55;4.10;;;3.70;;
80539;SDS011;69869;48.036;15.780;2024-02-16T02:05:22;4.18;;;3.72;;
80539;SDS011;69869;48.036;15.780;2024-02-16T02:07:48;3.60;;;3.30;;
80539;SDS011;69869;48.036;15.780;2024-02-16T02:10:14;3.95;;;3.55;;
80539;SDS011;69869;48.036;15.780;2024-02-16T02:12:40;4.05;;;3.63;;
80539;SDS011;69869;48.036;15.780;2024-02-16T02:15:07;3.92;;;3.55;;
80539;SDS011;69869;48.036;15.780;2024-02-16T02:17:34;3.67;;;3.28;;
80539;SDS011;69869;48.036;15.780;2024-02-16T02:20:00;3.70;;;3.40;;
80539;SDS011;69869;48.036;15.780;2024-02-16T02:22:26;3.53;;;3.20;;
80539;SDS011;69869;48.036;15.780;2024-02-16T02:24:52;3.78;;;3.40;;
80539;SDS011;69869;48.036;15.780;2024-02-16T02:27:20;3.67;;;3.38;;
80539;SDS011;69869;48.036;15.780;2024-02-16T02:29:46;4.20;;;3.40;;
80539;SDS011;69869;48.036;15.780;2024-02-16T02:32:12;3.22;;;2.92;;
80539;SDS011;69869;48.036;15.780;2024-02-16T02:34:38;3.45;;;3.15;;
80539;SDS011;69869;48.036;15.780;2024-02-16T02:37:04;3.22;;;2.92;;
80539;SDS011;69869;48.036;15.780;2024-02-16T02:39:30;3.50;;;3.20;;
80539;SDS011;69869;48.036;15.780;2024-02-16T02:41:56;3.15;;;2.85;;
80539;SDS011;69869;48.036;15.780;2024-02-16T02:44:23;3.10;;;2.80;;
80539;SDS011;69869;48.036;15.780;2024-02-16T02:46:49;4.10;;;2.88;;
80539;SDS011;69869;48.036;15.780;2024-02-16T02:49:15;3.10;;;2.80;;
80539;SDS011;69869;48.036;15.780;2024-02-16T02:51:40;3.20;;;3.00;;
80539;SDS011;69869;48.036;15.780;2024-02-16T02:54:06;3.13;;;2.90;;
80539;SDS011;69869;48.036;15.780;2024-02-16T02:56:31;3.03;;;2.72;;
80539;SDS011;69869;48.036;15.780;2024-02-16T02:58:57;3.25;;;2.80;;
80539;SDS011;69869;48.036;15.780;2024-02-16T03:01:23;3.28;;;2.97;;
80539;SDS011;69869;48.036;15.780;2024-02-16T03:03:48;2.92;;;2.67;;
80539;SDS011;69869;48.036;15.780;2024-02-16T03:06:20;2.92;;;2.72;;
80539;SDS011;69869;48.036;15.780;2024-02-16T03:08:46;3.15;;;2.85;;
80539;SDS011;69869;48.036;15.780;2024-02-16T03:11:12;2.80;;;2.60;;
80539;SDS011;69869;48.036;15.780;2024-02-16T03:13:38;3.05;;;2.80;;
80539;SDS011;69869;48.036;15.780;2024-02-16T03:16:03;2.80;;;2.60;;
80539;SDS011;69869;48.036;15.780;2024-02-16T03:18:29;3.15;;;2.90;;
80539;SDS011;69869;48.036;15.780;2024-02-16T03:20:59;2.70;;;2.50;;
80539;SDS011;69869;48.036;15.780;2024-02-16T03:23:25;2.50;;;2.30;;
80539;SDS011;69869;48.036;15.780;2024-02-16T03:25:50;3.00;;;2.80;;
80539;SDS011;69869;48.036;15.780;2024-02-16T03:28:16;3.80;;;2.78;;
80539;SDS011;69869;48.036;15.780;2024-02-16T03:30:42;2.72;;;2.53;;
80539;SDS011;69869;48.036;15.780;2024-02-16T03:33:08;2.90;;;2.60;;
80539;SDS011;69869;48.036;15.780;2024-02-16T03:35:34;2.58;;;2.40;;
80539;SDS011;69869;48.036;15.780;2024-02-16T03:38:01;3.00;;;2.70;;
80539;SDS011;69869;48.036;15.780;2024-02-16T03:40:28;2.80;;;2.58;;
80539;SDS011;69869;48.036;15.780;2024-02-16T03:42:53;2.78;;;2.58;;
80539;SDS011;69869;48.036;15.780;2024-02-16T03:45:20;3.20;;;2.85;;
80539;SDS011;69869;48.036;15.780;2024-02-16T03:47:46;2.65;;;2.45;;
80539;SDS011;69869;48.036;15.780;2024-02-16T03:50:13;2.92;;;2.63;;
80539;SDS011;69869;48.036;15.780;2024-02-16T03:52:39;3.17;;;2.67;;
80539;SDS011;69869;48.036;15.780;2024-02-16T03:55:05;3.15;;;2.60;;
80539;SDS011;69869;48.036;15.780;2024-02-16T03:57:31;2.97;;;2.67;;
80539;SDS011;69869;48.036;15.780;2024-02-16T03:59:57;2.90;;;2.60;;
80539;SDS011;69869;48.036;15.780;2024-02-16T04:02:22;2.60;;;2.40;;
80539;SDS011;69869;48.036;15.780;2024-02-16T04:04:48;2.60;;;2.40;;
80539;SDS011;69869;48.036;15.780;2024-02-16T04:07:14;2.97;;;2.60;;
80539;SDS011;69869;48.036;15.780;2024-02-16T04:09:39;2.80;;;2.60;;
80539;SDS011;69869;48.036;15.780;2024-02-16T04:12:05;2.90;;;2.60;;
80539;SDS011;69869;48.036;15.780;2024-02-16T04:14:31;2.50;;;2.30;;
80539;SDS011;69869;48.036;15.780;2024-02-16T04:16:58;2.92;;;2.63;;
80539;SDS011;69869;48.036;15.780;2024-02-16T04:19:28;3.08;;;2.60;;
80539;SDS011;69869;48.036;15.780;2024-02-16T04:21:54;2.65;;;2.45;;
80539;SDS011;69869;48.036;15.780;2024-02-16T04:24:20;2.80;;;2.60;;
80539;SDS011;69869;48.036;15.780;2024-02-16T04:26:46;2.63;;;2.42;;
80539;SDS011;69869;48.036;15.780;2024-02-16T04:29:11;3.10;;;2.47;;
80539;SDS011;69869;48.036;15.780;2024-02-16T04:31:40;2.55;;;2.33;;
80539;SDS011;69869;48.036;15.780;2024-02-16T04:34:07;3.30;;;2.72;;
80539;SDS011;69869;48.036;15.780;2024-02-16T04:36:34;2.90;;;2.60;;
80539;SDS011;69869;48.036;15.780;2024-02-16T04:38:59;2.70;;;2.50;;
80539;SDS011;69869;48.036;15.780;2024-02-16T04:41:25;2.85;;;2.65;;
80539;SDS011;69869;48.036;15.780;2024-02-16T04:43:51;2.63;;;2.42;;
80539;SDS011;69869;48.036;15.780;2024-02-16T04:46:17;3.13;;;2.83;;
80539;SDS011;69869;48.036;15.780;2024-02-16T04:48:42;2.80;;;2.60;;
80539;SDS011;69869;48.036;15.780;2024-02-16T04:51:08;2.53;;;2.33;;
80539;SDS011;69869;48.036;15.780;2024-02-16T04:53:35;2.78;;;2.58;;
80539;SDS011;69869;48.036;15.780;2024-02-16T04:56:01;3.00;;;2.70;;
80539;SDS011;69869;48.036;15.780;2024-02-16T04:58:27;3.15;;;2.88;;
80539;SDS011;69869;48.036;15.780;2024-02-16T05:00:53;3.15;;;2.50;;
80539;SDS011;69869;48.036;15.780;2024-02-16T05:03:18;4.70;;;2.90;;
80539;SDS011;69869;48.036;15.780;2024-02-16T05:05:44;2.85;;;2.60;;
80539;SDS011;69869;48.036;15.780;2024-02-16T05:08:10;3.05;;;2.83;;
80539;SDS011;69869;48.036;15.780;2024-02-16T05:10:36;3.08;;;2.70;;
80539;SDS011;69869;48.036;15.780;2024-02-16T05:13:02;3.35;;;2.72;;
80539;SDS011;69869;48.036;15.780;2024-02-16T05:15:28;3.88;;;2.72;;
80539;SDS011;69869;48.036;15.780;2024-02-16T05:17:54;3.17;;;2.60;;
80539;SDS011;69869;48.036;15.780;2024-02-16T05:20:20;4.93;;;3.10;;
80539;SDS011;69869;48.036;15.780;2024-02-16T05:22:45;2.80;;;2.55;;
80539;SDS011;69869;48.036;15.780;2024-02-16T05:25:12;3.03;;;2.72;;
80539;SDS011;69869;48.036;15.780;2024-02-16T05:27:38;3.63;;;3.15;;
80539;SDS011;69869;48.036;15.780;2024-02-16T05:30:04;3.55;;;3.00;;
80539;SDS011;69869;48.036;15.780;2024-02-16T05:32:36;3.55;;;2.70;;
80539;SDS011;69869;48.036;15.780;2024-02-16T05:35:03;4.75;;;2.88;;
80539;SDS011;69869;48.036;15.780;2024-02-16T05:37:40;3.53;;;2.67;;
80539;SDS011;69869;48.036;15.780;2024-02-16T05:40:09;2.95;;;2.67;;
80539;SDS011;69869;48.036;15.780;2024-02-16T05:42:52;3.38;;;2.85;;
80539;SDS011;69869;48.036;15.780;2024-02-16T05:45:19;4.43;;;2.80;;
80539;SDS011;69869;48.036;15.780;2024-02-16T05:47:48;4.55;;;2.95;;
80539;SDS011;69869;48.036;15.780;2024-02-16T05:50:15;3.65;;;2.80;;
80539;SDS011;69869;48.036;15.780;2024-02-16T05:52:41;4.88;;;3.08;;
80539;SDS011;69869;48.036;15.780;2024-02-16T05:55:08;4.55;;;2.90;;
80539;SDS011;69869;48.036;15.780;2024-02-16T05:57:34;4.38;;;3.20;;
80539;SDS011;69869;48.036;15.780;2024-02-16T06:00:01;3.40;;;3.10;;
80539;SDS011;69869;48.036;15.780;2024-02-16T06:02:31;4.20;;;2.90;;
80539;SDS011;69869;48.036;15.780;2024-02-16T06:04:57;3.70;;;3.13;;
80539;SDS011;69869;48.036;15.780;2024-02-16T06:07:24;3.10;;;2.80;;
80539;SDS011;69869;48.036;15.780;2024-02-16T06:09:49;5.10;;;2.90;;
80539;SDS011;69869;48.036;15.780;2024-02-16T06:12:15;3.20;;;2.88;;
80539;SDS011;69869;48.036;15.780;2024-02-16T06:14:41;4.68;;;3.03;;
80539;SDS011;69869;48.036;15.780;2024-02-16T06:17:07;3.20;;;2.85;;
80539;SDS011;69869;48.036;15.780;2024-02-16T06:19:34;3.63;;;2.80;;
80539;SDS011;69869;48.036;15.780;2024-02-16T06:22:02;3.70;;;2.72;;
80539;SDS011;69869;48.036;15.780;2024-02-16T06:24:28;3.00;;;2.70;;
80539;SDS011;69869;48.036;15.780;2024-02-16T06:26:54;3.03;;;2.72;;
80539;SDS011;69869;48.036;15.780;2024-02-16T06:29:20;4.13;;;2.97;;
80539;SDS011;69869;48.036;15.780;2024-02-16T06:31:46;3.65;;;3.05;;
80539;SDS011;69869;48.036;15.780;2024-02-16T06:34:13;4.30;;;2.88;;
80539;SDS011;69869;48.036;15.780;2024-02-16T06:36:39;3.28;;;2.70;;
80539;SDS011;69869;48.036;15.780;2024-02-16T06:39:05;3.38;;;2.80;;
80539;SDS011;69869;48.036;15.780;2024-02-16T06:41:31;4.65;;;2.80;;
80539;SDS011;69869;48.036;15.780;2024-02-16T06:43:56;3.20;;;2.80;;
80539;SDS011;69869;48.036;15.780;2024-02-16T06:46:22;3.15;;;2.85;;
80539;SDS011;69869;48.036;15.780;2024-02-16T06:48:49;4.13;;;2.92;;
80539;SDS011;69869;48.036;15.780;2024-02-16T06:51:15;3.85;;;2.90;;
80539;SDS011;69869;48.036;15.780;2024-02-16T06:53:41;4.38;;;2.90;;
80539;SDS011;69869;48.036;15.780;2024-02-16T06:56:06;3.08;;;2.70;;
80539;SDS011;69869;48.036;15.780;2024-02-16T06:58:33;4.10;;;2.88;;
80539;SDS011;69869;48.036;15.780;2024-02-16T07:00:59;3.22;;;2.83;;
80539;SDS011;69869;48.036;15.780;2024-02-16T07:03:28;3.75;;;3.03;;
80539;SDS011;69869;48.036;15.780;2024-02-16T07:05:54;3.22;;;2.92;;
80539;SDS011;69869;48.036;15.780;2024-02-16T07:08:19;3.33;;;2.80;;
80539;SDS011;69869;48.036;15.780;2024-02-16T07:10:46;3.25;;;2.90;;
80539;SDS011;69869;48.036;15.780;2024-02-16T07:13:12;3.70;;;2.92;;
80539;SDS011;69869;48.036;15.780;2024-02-16T07:15:38;3.85;;;3.00;;
80539;SDS011;69869;48.036;15.780;2024-02-16T07:18:05;3.67;;;2.83;;
80539;SDS011;69869;48.036;15.780;2024-02-16T07:20:31;4.38;;;2.85;;
80539;SDS011;69869;48.036;15.780;2024-02-16T07:22:56;3.78;;;2.85;;
80539;SDS011;69869;48.036;15.780;2024-02-16T07:25:22;3.60;;;2.90;;
80539;SDS011;69869;48.036;15.780;2024-02-16T07:27:47;3.10;;;2.75;;
80539;SDS011;69869;48.036;15.780;2024-02-16T07:30:13;3.75;;;2.83;;
80539;SDS011;69869;48.036;15.780;2024-02-16T07:32:39;3.00;;;2.60;;
80539;SDS011;69869;48.036;15.780;2024-02-16T07:35:05;3.83;;;2.90;;
80539;SDS011;69869;48.036;15.780;2024-02-16T07:37:31;2.72;;;2.53;;
80539;SDS011;69869;48.036;15.780;2024-02-16T07:39:57;3.92;;;2.90;;
80539;SDS011;69869;48.036;15.780;2024-02-16T07:42:23;3.20;;;2.90;;
80539;SDS011;69869;48.036;15.780;2024-02-16T07:44:48;3.58;;;3.17;;
80539;SDS011;69869;48.036;15.780;2024-02-16T07:47:15;3.00;;;2.70;;
80539;SDS011;69869;48.036;15.780;2024-02-16T07:49:41;3.75;;;2.85;;
80539;SDS011;69869;48.036;15.780;2024-02-16T07:52:07;4.28;;;3.25;;
80539;SDS011;69869;48.036;15.780;2024-02-16T07:54:34;3.30;;;3.00;;
80539;SDS011;69869;48.036;15.780;2024-02-16T07:56:59;3.30;;;2.75;;
80539;SDS011;69869;48.036;15.780;2024-02-16T07:59:25;2.88;;;2.60;;
80539;SDS011;69869;48.036;15.780;2024-02-16T08:01:51;3.78;;;2.80;;
80539;SDS011;69869;48.036;15.780;2024-02-16T08:04:16;3.38;;;2.78;;
80539;SDS011;69869;48.036;15.780;2024-02-16T08:06:42;3.97;;;3.13;;
80539;SDS011;69869;48.036;15.780;2024-02-16T08:09:08;3.00;;;2.70;;
80539;SDS011;69869;48.036;15.780;2024-02-16T08:11:34;4.60;;;3.00;;
80539;SDS011;69869;48.036;15.780;2024-02-16T08:14:02;3.10;;;2.80;;
80539;SDS011;69869;48.036;15.780;2024-02-16T08:16:28;3.47;;;2.92;;
80539;SDS011;69869;48.036;15.780;2024-02-16T08:18:54;3.80;;;3.13;;
80539;SDS011;69869;48.036;15.780;2024-02-16T08:21:19;3.83;;;3.00;;
80539;SDS011;69869;48.036;15.780;2024-02-16T08:23:46;3.45;;;2.90;;
80539;SDS011;69869;48.036;15.780;2024-02-16T08:26:12;3.20;;;2.90;;
80539;SDS011;69869;48.036;15.780;2024-02-16T08:28:37;4.18;;;3.10;;
80539;SDS011;69869;48.036;15.780;2024-02-16T08:31:04;3.47;;;3.10;;
80539;SDS011;69869;48.036;15.780;2024-02-16T08:33:31;4.35;;;2.80;;
80539;SDS011;69869;48.036;15.780;2024-02-16T08:35:58;3.63;;;2.92;;
80539;SDS011;69869;48.036;15.780;2024-02-16T08:38:23;2.90;;;2.60;;
80539;SDS011;69869;48.036;15.780;2024-02-16T08:40:49;3.13;;;2.83;;
80539;SDS011;69869;48.036;15.780;2024-02-16T08:43:17;3.20;;;2.90;;
80539;SDS011;69869;48.036;15.780;2024-02-16T08:45:42;3.47;;;3.17;;
80539;SDS011;69869;48.036;15.780;2024-02-16T08:48:08;2.95;;;2.60;;
80539;SDS011;69869;48.036;15.780;2024-02-16T08:50:34;3.08;;;2.80;;
80539;SDS011;69869;48.036;15.780;2024-02-16T08:53:00;3.33;;;3.00;;
80539;SDS011;69869;48.036;15.780;2024-02-16T08:55:25;3.35;;;3.00;;
80539;SDS011;69869;48.036;15.780;2024-02-16T08:57:51;2.90;;;2.70;;
80539;SDS011;69869;48.036;15.780;2024-02-16T09:00:17;3.30;;;3.00;;
80539;SDS011;69869;48.036;15.780;2024-02-16T09:02:43;3.38;;;3.05;;
80539;SDS011;69869;48.036;15.780;2024-02-16T09:05:10;2.95;;;2.65;;
80539;SDS011;69869;48.036;15.780;2024-02-16T09:07:36;3.10;;;2.80;;
80539;SDS011;69869;48.036;15.780;2024-02-16T09:10:02;3.13;;;2.83;;
80539;SDS011;69869;48.036;15.780;2024-02-16T09:12:29;4.45;;;3.20;;
80539;SDS011;69869;48.036;15.780;2024-02-16T09:14:55;3.40;;;3.10;;
80539;SDS011;69869;48.036;15.780;2024-02-16T09:17:20;2.90;;;2.70;;
80539;SDS011;69869;48.036;15.780;2024-02-16T09:19:46;3.25;;;2.95;;
80539;SDS011;69869;48.036;15.780;2024-02-16T09:22:11;3.50;;;3.20;;
80539;SDS011;69869;48.036;15.780;2024-02-16T09:24:37;4.53;;;2.97;;
80539;SDS011;69869;48.036;15.780;2024-02-16T09:27:03;3.28;;;2.97;;
80539;SDS011;69869;48.036;15.780;2024-02-16T09:29:29;7.30;;;3.00;;
80539;SDS011;69869;48.036;15.780;2024-02-16T09:31:55;3.50;;;3.20;;
80539;SDS011;69869;48.036;15.780;2024-02-16T09:34:21;3.85;;;2.85;;
80539;SDS011;69869;48.036;15.780;2024-02-16T09:36:47;4.32;;;3.20;;
80539;SDS011;69869;48.036;15.780;2024-02-16T09:39:13;3.63;;;3.00;;
80539;SDS011;69869;48.036;15.780;2024-02-16T09:41:41;3.40;;;3.10;;
80539;SDS011;69869;48.036;15.780;2024-02-16T09:44:10;3.17;;;2.80;;
80539;SDS011;69869;48.036;15.780;2024-02-16T09:46:36;3.33;;;3.03;;
80539;SDS011;69869;48.036;15.780;2024-02-16T09:49:02;3.50;;;3.03;;
80539;SDS011;69869;48.036;15.780;2024-02-16T09:51:29;3.25;;;2.95;;
80539;SDS011;69869;48.036;15.780;2024-02-16T09:54:00;3.05;;;2.75;;
80539;SDS011;69869;48.036;15.780;2024-02-16T09:56:27;3.65;;;2.88;;
80539;SDS011;69869;48.036;15.780;2024-02-16T09:58:53;3.10;;;2.80;;
80539;SDS011;69869;48.036;15.780;2024-02-16T10:01:22;3.42;;;3.00;;
80539;SDS011;69869;48.036;15.780;2024-02-16T10:03:49;2.97;;;2.53;;
80539;SDS011;69869;48.036;15.780;2024-02-16T10:06:15;3.53;;;2.97;;
80539;SDS011;69869;48.036;15.780;2024-02-16T10:11:17;3.05;;;2.85;;
80539;SDS011;69869;48.036;15.780;2024-02-16T10:13:57;2.88;;;2.55;;
80539;SDS011;69869;48.036;15.780;2024-02-16T10:16:23;4.22;;;2.88;;
80539;SDS011;69869;48.036;15.780;2024-02-16T10:18:49;2.70;;;2.50;;
80539;SDS011;69869;48.036;15.780;2024-02-16T10:21:25;3.17;;;2.83;;
80539;SDS011;69869;48.036;15.780;2024-02-16T10:24:00;3.40;;;2.78;;
80539;SDS011;69869;48.036;15.780;2024-02-16T10:26:34;3.38;;;3.08;;
80539;SDS011;69869;48.036;15.780;2024-02-16T10:29:03;2.72;;;2.53;;
80539;SDS011;69869;48.036;15.780;2024-02-16T10:31:31;2.80;;;2.50;;
80539;SDS011;69869;48.036;15.780;2024-02-16T10:34:01;3.05;;;2.75;;
80539;SDS011;69869;48.036;15.780;2024-02-16T10:36:31;3.78;;;2.85;;
80539;SDS011;69869;48.036;15.780;2024-02-16T10:38:57;2.83;;;2.63;;
80539;SDS011;69869;48.036;15.780;2024-02-16T10:41:25;2.25;;;2.15;;
80539;SDS011;69869;48.036;15.780;2024-02-16T10:43:55;2.88;;;2.67;;
80539;SDS011;69869;48.036;15.780;2024-02-16T10:46:22;2.63;;;2.42;;
80539;SDS011;69869;48.036;15.780;2024-02-16T10:48:49;3.13;;;2.67;;
80539;SDS011;69869;48.036;15.780;2024-02-16T10:51:15;3.03;;;2.53;;
80539;SDS011;69869;48.036;15.780;2024-02-16T10:53:45;2.70;;;2.50;;
80539;SDS011;69869;48.036;15.780;2024-02-16T10:56:13;3.03;;;2.70;;
80539;SDS011;69869;48.036;15.780;2024-02-16T10:58:38;2.90;;;2.70;;
80539;SDS011;69869;48.036;15.780;2024-02-16T11:01:09;2.97;;;2.70;;
80539;SDS011;69869;48.036;15.780;2024-02-16T11:03:38;2.83;;;2.63;;
80539;SDS011;69869;48.036;15.780;2024-02-16T11:06:16;3.00;;;2.70;;
80539;SDS011;69869;48.036;15.780;2024-02-16T11:08:42;2.75;;;2.55;;
80539;SDS011;69869;48.036;15.780;2024-02-16T11:11:08;3.03;;;2.72;;
80539;SDS011;69869;48.036;15.780;2024-02-16T11:13:37;3.20;;;2.90;;
80539;SDS011;69869;48.036;15.780;2024-02-16T11:16:03;2.70;;;2.50;;
80539;SDS011;69869;48.036;15.780;2024-02-16T11:18:36;3.17;;;2.88;;
80539;SDS011;69869;48.036;15.780;2024-02-16T11:21:04;3.17;;;2.85;;
80539;SDS011;69869;48.036;15.780;2024-02-16T11:23:33;3.58;;;2.70;;
80539;SDS011;69869;48.036;15.780;2024-02-16T11:26:04;3.28;;;2.97;;
80539;SDS011;69869;48.036;15.780;2024-02-16T11:28:34;3.08;;;2.78;;
80539;SDS011;69869;48.036;15.780;2024-02-16T11:31:01;3.58;;;3.05;;
80539;SDS011;69869;48.036;15.780;2024-02-16T11:33:27;3.42;;;2.97;;
80539;SDS011;69869;48.036;15.780;2024-02-16T11:35:57;3.40;;;3.10;;
80539;SDS011;69869;48.036;15.780;2024-02-16T11:38:23;3.30;;;3.00;;
80539;SDS011;69869;48.036;15.780;2024-02-16T11:41:11;3.28;;;2.97;;
80539;SDS011;69869;48.036;15.780;2024-02-16T11:43:36;3.17;;;2.88;;
80539;SDS011;69869;48.036;15.780;2024-02-16T11:46:11;3.22;;;2.92;;
80539;SDS011;69869;48.036;15.780;2024-02-16T11:48:38;3.70;;;3.20;;
80539;SDS011;69869;48.036;15.780;2024-02-16T11:51:04;3.53;;;3.08;;
80539;SDS011;69869;48.036;15.780;2024-02-16T11:53:30;3.30;;;2.97;;
80539;SDS011;69869;48.036;15.780;2024-02-16T11:55:56;3.45;;;3.15;;
80539;SDS011;69869;48.036;15.780;2024-02-16T11:58:22;3.33;;;3.03;;
80539;SDS011;69869;48.036;15.780;2024-02-16T12:00:49;3.20;;;2.90;;
80539;SDS011;69869;48.036;15.780;2024-02-16T12:03:22;3.40;;;3.10;;
80539;SDS011;69869;48.036;15.780;2024-02-16T12:05:52;3.30;;;3.00;;
80539;SDS011;69869;48.036;15.780;2024-02-16T12:08:22;3.58;;;3.28;;
80539;SDS011;69869;48.036;15.780;2024-02-16T12:10:48;3.20;;;2.90;;
80539;SDS011;69869;48.036;15.780;2024-02-16T12:13:18;3.40;;;3.10;;
80539;SDS011;69869;48.036;15.780;2024-02-16T12:15:48;3.30;;;3.00;;
80539;SDS011;69869;48.036;15.780;2024-02-16T12:18:25;3.75;;;3.45;;
80539;SDS011;69869;48.036;15.780;2024-02-16T12:23:26;4.45;;;3.35;;
80539;SDS011;69869;48.036;15.780;2024-02-16T12:25:53;3.83;;;3.53;;
80539;SDS011;69869;48.036;15.780;2024-02-16T12:28:19;3.67;;;3.38;;
80539;SDS011;69869;48.036;15.780;2024-02-16T12:30:45;3.63;;;3.33;;
80539;SDS011;69869;48.036;15.780;2024-02-16T12:33:13;4.38;;;3.60;;
80539;SDS011;69869;48.036;15.780;2024-02-16T12:35:39;3.70;;;3.40;;
80539;SDS011;69869;48.036;15.780;2024-02-16T12:38:05;3.67;;;3.25;;
80539;SDS011;69869;48.036;15.780;2024-02-16T12:40:31;3.90;;;3.40;;
80539;SDS011;69869;48.036;15.780;2024-02-16T12:42:56;3.70;;;3.40;;
80539;SDS011;69869;48.036;15.780;2024-02-16T12:45:22;4.28;;;3.55;;
80539;SDS011;69869;48.036;15.780;2024-02-16T12:47:48;3.55;;;3.25;;
80539;SDS011;69869;48.036;15.780;2024-02-16T12:50:15;3.90;;;3.55;;
80539;SDS011;69869;48.036;15.780;2024-02-16T12:52:40;4.03;;;3.63;;
80539;SDS011;69869;48.036;15.780;2024-02-16T12:55:06;3.90;;;3.50;;
80539;SDS011;69869;48.036;15.780;2024-02-16T12:57:34;3.80;;;3.50;;
80539;SDS011;69869;48.036;15.780;2024-02-16T13:00:00;4.60;;;3.35;;
80539;SDS011;69869;48.036;15.780;2024-02-16T13:02:27;4.00;;;3.60;;
80539;SDS011;69869;48.036;15.780;2024-02-16T13:04:54;4.45;;;3.95;;
80539;SDS011;69869;48.036;15.780;2024-02-16T13:07:20;3.67;;;3.28;;
80539;SDS011;69869;48.036;15.780;2024-02-16T13:09:45;3.72;;;3.33;;
80539;SDS011;69869;48.036;15.780;2024-02-16T13:12:11;3.72;;;3.33;;
80539;SDS011;69869;48.036;15.780;2024-02-16T13:14:36;3.60;;;3.30;;
80539;SDS011;69869;48.036;15.780;2024-02-16T13:17:03;3.85;;;3.55;;
80539;SDS011;69869;48.036;15.780;2024-02-16T13:19:29;4.13;;;3.72;;
80539;SDS011;69869;48.036;15.780;2024-02-16T13:21:55;3.97;;;3.30;;
80539;SDS011;69869;48.036;15.780;2024-02-16T13:24:20;3.50;;;3.20;;
80539;SDS011;69869;48.036;15.780;2024-02-16T13:26:46;4.20;;;3.70;;
80539;SDS011;69869;48.036;15.780;2024-02-16T13:29:12;3.65;;;3.35;;
80539;SDS011;69869;48.036;15.780;2024-02-16T13:31:37;3.72;;;3.42;;
80539;SDS011;69869;48.036;15.780;2024-02-16T13:34:05;4.13;;;3.75;;
80539;SDS011;69869;48.036;15.780;2024-02-16T13:36:30;3.85;;;3.50;;
80539;SDS011;69869;48.036;15.780;2024-02-16T13:38:56;4.28;;;3.65;;
80539;SDS011;69869;48.036;15.780;2024-02-16T13:41:21;3.85;;;3.53;;
80539;SDS011;69869;48.036;15.780;2024-02-16T13:43:47;5.80;;;3.78;;
80539;SDS011;69869;48.036;15.780;2024-02-16T13:46:13;4.20;;;3.80;;
80539;SDS011;69869;48.036;15.780;2024-02-16T13:48:39;3.63;;;3.33;;
80539;SDS011;69869;48.036;15.780;2024-02-16T13:51:06;3.97;;;3.45;;
80539;SDS011;69869;48.036;15.780;2024-02-16T13:53:32;3.70;;;3.40;;
80539;SDS011;69869;48.036;15.780;2024-02-16T13:55:58;3.80;;;3.50;;
80539;SDS011;69869;48.036;15.780;2024-02-16T13:58:28;4.07;;;3.67;;
80539;SDS011;69869;48.036;15.780;2024-02-16T14:00:55;4.50;;;3.65;;
80539;SDS011;69869;48.036;15.780;2024-02-16T14:03:21;4.18;;;3.78;;
80539;SDS011;69869;48.036;15.780;2024-02-16T14:05:47;4.25;;;3.85;;
80539;SDS011;69869;48.036;15.780;2024-02-16T14:08:13;3.80;;;3.50;;
80539;SDS011;69869;48.036;15.780;2024-02-16T14:10:40;3.85;;;3.55;;
80539;SDS011;69869;48.036;15.780;2024-02-16T14:13:05;3.88;;;3.47;;
80539;SDS011;69869;48.036;15.780;2024-02-16T14:15:31;4.18;;;3.58;;
80539;SDS011;69869;48.036;15.780;2024-02-16T14:17:57;3.47;;;3.17;;
80539;SDS011;69869;48.036;15.780;2024-02-16T14:20:23;3.85;;;3.38;;
80539;SDS011;69869;48.036;15.780;2024-02-16T14:22:48;4.18;;;3.78;;
80539;SDS011;69869;48.036;15.780;2024-02-16T14:25:14;3.78;;;3.47;;
80539;SDS011;69869;48.036;15.780;2024-02-16T14:27:40;5.60;;;4.18;;
80539;SDS011;69869;48.036;15.780;2024-02-16T14:30:10;3.83;;;3.33;;
80539;SDS011;69869;48.036;15.780;2024-02-16T14:32:36;4.32;;;3.67;;
80539;SDS011;69869;48.036;15.780;2024-02-16T14:35:02;4.10;;;3.70;;